Tyrone, NY (14887)

8:58 AM EDT on April 27, 2015 (GMT -0400)
FingerLakes | | Change Station
CLOSE
Current Station
Personal Weather Station
Location: Waneta Lake, NY
Elevation: 1099 ft
Nearby Weather Stations

Elev 1099 ft 42.46 °N, 77.10 °W | Updated 3 seconds ago

Overcast
Overcast
42.2 °F
Feels Like 39 °F
N
4.6
Wind Variable Wind from NW
Gusts 4.6 mph

Today
High -- | Low -- °F
--% Chance of Precip.
Yesterday
High -- | Low -- °F
Precip. -- in
6:09 AM 8:03 PM
Waxing Gibbous, 64% visible
Pressure 29.78 in
Visibility 10.0 miles
Clouds Overcast 1700 ft
Windchill 39 °F
Dew Point 37 °F
Humidity 82%
Rainfall 0.00 in
Snow Depth Not available.
UV 0 out of 12
Pollen 9.20 out of 12
Air Quality Not available.
Flu Activity Widespread
METAR KPEO 271153Z AUTO VRB05KT 10SM OVC017 06/01 A2977 RMK AO2 SLP085 T00560011 10061 20056 51009

More Conditions Fewer Conditions

Pressure 29.78 in
Visibility 10.0 miles
Clouds Overcast 1700 ft
Windchill 39 °F
Dew Point 37 °F
Humidity 82%
Rainfall 0.00 in
Snow Depth Not available.
UV 0 out of 12
Pollen 9.20 out of 12
Air Quality Not available.
Flu Activity Widespread
METAR KPEO 271153Z AUTO VRB05KT 10SM OVC017 06/01 A2977 RMK AO2 SLP085 T00560011 10061 20056 51009

More Conditions Fewer Conditions

10-Day Weather Forecast

Almanac

Astronomy

Apr. 27, 2015 Rise Set
Actual Time
Civil Twilight
Nautical Twilight
Astronomical Twilight
Moon
Length of Visible Light
Length of Day
Tomorrow will be .
, % of the Moon is Illuminated

Today's Extremes

State Highs State Lows

Community

WunderPhotos

Upload Photos

1,817,292 photos uploaded!

WunderBlogs® & News

Nearby

Air Quality

  Air Quality AQ Index Pollutant
Not available.

Snow Depth

Station Depth Elevation

Earthquake Activity

City Distance Mag. Time & Date
Minimum magnitude displayed is 2.5.

Coastal Water Temperatures

Place Temperature

Stations

Nearby Weather Stations

Station Location Temp. Windchill Dew Point Humidity Wind Precip. Elev Updated Type